CW6020 Teulada ES current weather conditions

sailwx.info

Wind from 270 at 0 knots gusting 2

Air temperature 31.7° C
Dewpoint 20.6° C

Last reported at 2015-Jul-03 16:46 UTC.
Time now 2015-Jul-03 17:18 UTC

Location: N 38°44' E 000°06'.
View on Google Maps.

See reports from other nearby stations

  
Tides and Currents Weather Stations Pressure Air Temp Water Temp Dewpoint Dewpoint Depression Visibility Wind Speed Wind Dir Waves Ship Positions
date/time (UTC)wind fromknots sea level pressurealtimeterstation pressurevisibilityair tempwater tempwave heightnotes
2015-Jul-03 16:46 270 0 gusting 2 31.7
2015-Jul-03 16:36 270 1 gusting 2 32.2
2015-Jul-03 16:26 270 0 gusting 2 32.2
2015-Jul-03 16:16 270 1 gusting 2 32.2
2015-Jul-03 16:06 270 2 gusting 4 31.7
2015-Jul-03 15:56 270 2 gusting 3 32.2
2015-Jul-03 15:46 270 2 gusting 4 32.2
2015-Jul-03 15:36 270 1 gusting 3 32.2
2015-Jul-03 15:26 270 2 gusting 6 32.8
2015-Jul-03 15:16 270 2 gusting 6 33.3
2015-Jul-03 15:06 225 0 gusting 2 33.9
2015-Jul-03 14:56 225 2 gusting 3 33.3
2015-Jul-03 14:46 225 1 gusting 2 33.9
2015-Jul-03 14:36 225 0 gusting 2 33.9
2015-Jul-03 14:26 225 2 gusting 5 33.9
2015-Jul-03 14:16 225 2 gusting 5 33.9
2015-Jul-03 14:06 225 0 gusting 2 33.9
2015-Jul-03 13:56 225 1 gusting 3 34.4
2015-Jul-03 13:46 225 2 gusting 5 34.4
2015-Jul-03 13:36 180 1 gusting 2 35.0
2015-Jul-03 13:26 225 3 gusting 5 35.0
2015-Jul-03 13:16 225 1 gusting 2 35.0
2015-Jul-03 13:06 225 1 gusting 2 34.4
2015-Jul-03 12:56 225 1 gusting 2 34.4
2015-Jul-03 12:46 225 0 gusting 2 34.4
2015-Jul-03 12:36 225 2 gusting 4 33.9
2015-Jul-03 12:26 225 2 gusting 6 33.9
2015-Jul-03 12:16 180 1 gusting 3 33.9
2015-Jul-03 12:06 225 32.8
2015-Jul-03 11:56 225 1 gusting 2 32.2
2015-Jul-03 11:46 225 1 gusting 5 32.2
2015-Jul-03 11:36 225 3 gusting 5 32.2
2015-Jul-03 11:26 225 2 gusting 3 31.7
2015-Jul-03 11:16 225 2 gusting 5 31.7
2015-Jul-03 11:06 225 2 gusting 5 31.7
2015-Jul-03 10:56 247 4 gusting 6 31.7
2015-Jul-03 10:46 225 0 gusting 4 31.7
2015-Jul-03 10:36 090 2 gusting 3 31.7
2015-Jul-03 10:26 045 0 gusting 2 31.1
2015-Jul-03 10:16 045 1 gusting 2 30.6
2015-Jul-03 10:06 067 3 gusting 5 30.0
2015-Jul-03 09:56 090 2 gusting 5 30.0
2015-Jul-03 09:46 045 4 gusting 6 30.0
2015-Jul-03 09:36 045 2 gusting 5 30.0
2015-Jul-03 09:26 045 1 gusting 2 29.4
2015-Jul-03 09:16 045 2 gusting 5 28.9
2015-Jul-03 09:06 090 0 gusting 2 28.3
2015-Jul-03 08:56 045 2 gusting 5 27.8
2015-Jul-03 08:46 27.2
2015-Jul-03 08:36 045 4 gusting 6 27.2
2015-Jul-03 08:26 045 2 gusting 4 27.2
2015-Jul-03 08:16 045 4 gusting 6 27.2
2015-Jul-03 08:06 27.2
2015-Jul-03 07:56 270 0 gusting 2 26.7
2015-Jul-03 07:46 315 1 gusting 3 26.7
2015-Jul-03 07:36 270 2 gusting 2 26.1
2015-Jul-03 07:26 135 2 gusting 5 26.1
2015-Jul-03 07:16 25.6
2015-Jul-03 07:06 022 2 gusting 5 25.0
2015-Jul-03 06:56 045 2 gusting 5 25.0
2015-Jul-03 06:46 045 0 gusting 2 24.4
2015-Jul-03 06:36 045 1 gusting 2 23.9
2015-Jul-03 06:26 090 1 gusting 2 23.9
2015-Jul-03 06:16 090 0 gusting 1 23.3
2015-Jul-03 06:06 270 0 gusting 1 23.3
2015-Jul-03 05:56 270 0 gusting 3 23.3
2015-Jul-03 05:46 22.8
2015-Jul-03 05:36 22.8
2015-Jul-03 05:26 270 2 gusting 4 22.8
2015-Jul-03 05:16 270 22.8
2015-Jul-03 05:06 270 22.8
2015-Jul-03 04:56 270 22.8
2015-Jul-03 04:46 315 0 gusting 2 22.8
2015-Jul-03 04:36 180 22.8
2015-Jul-03 04:26 180 2 gusting 3 22.8
2015-Jul-03 04:16 090 0 gusting 2 22.8
2015-Jul-03 04:06 045 2 gusting 4 22.8
2015-Jul-03 03:56 045 22.8
2015-Jul-03 03:46 045 22.8
2015-Jul-03 03:36 045 1 gusting 2 22.8
2015-Jul-03 03:26 045 22.8
2015-Jul-03 03:16 045 23.3
2015-Jul-03 03:06 045 0 gusting 1 23.3
2015-Jul-03 02:56 23.3
2015-Jul-03 02:46 045 0 gusting 1 22.8
2015-Jul-03 02:36 045 1 gusting 2 22.8
2015-Jul-03 02:26 045 22.8
2015-Jul-03 02:16 22.8
2015-Jul-03 02:06 22.8
2015-Jul-03 01:56 23.3
2015-Jul-03 01:46 045 0 gusting 1 23.3
2015-Jul-03 01:36 045 23.3
2015-Jul-03 01:26 045 0 gusting 2 23.3
2015-Jul-03 01:16 045 0 gusting 2 23.3
2015-Jul-03 01:06 23.3
2015-Jul-03 00:56 045 23.3
2015-Jul-03 00:46 045 23.3
2015-Jul-03 00:36 045 23.3
2015-Jul-03 00:26 045 0 gusting 1 23.3
2015-Jul-03 00:11 045 0 gusting 2 23.9
2015-Jul-03 00:01 045 23.9
2015-Jul-02 23:46 23.9
2015-Jul-02 23:36 045 23.9
2015-Jul-02 23:26 23.9
2015-Jul-02 23:16 23.9
2015-Jul-02 23:06 045 23.9
2015-Jul-02 22:56 23.9
2015-Jul-02 22:46 225 23.9
2015-Jul-02 22:36 180 23.9
2015-Jul-02 22:26 045 24.4
2015-Jul-02 22:16 045 0 gusting 2 24.4
2015-Jul-02 22:06 045 1 gusting 2 24.4
2015-Jul-02 21:56 045 0 gusting 1 24.4
2015-Jul-02 21:46 045 24.4
2015-Jul-02 21:36 045 1 gusting 4 24.4
2015-Jul-02 21:26 045 2 gusting 3 24.4
2015-Jul-02 21:16 067 0 gusting 2 24.4
2015-Jul-02 21:06 067 0 gusting 2 24.4
2015-Jul-02 20:56 067 2 gusting 4 24.4
2015-Jul-02 20:46 067 0 gusting 2 25.0
2015-Jul-02 20:36 090 2 gusting 4 25.0
2015-Jul-02 20:26 090 2 gusting 5 25.0
2015-Jul-02 20:16 090 4 gusting 7 25.0
2015-Jul-02 20:06 045 5 gusting 8 25.0
2015-Jul-02 19:56 25.0
2015-Jul-02 19:46 045 2 gusting 4 25.0
2015-Jul-02 19:36 25.6
2015-Jul-02 19:26 270 2 gusting 5 25.6
2015-Jul-02 19:16 045 2 gusting 6 25.6
2015-Jul-02 19:06 337 1 gusting 3 25.6
2015-Jul-02 18:56 315 2 gusting 3 26.1
2015-Jul-02 18:46 247 2 gusting 5 26.1
2015-Jul-02 18:36 045 1 gusting 3 26.7
2015-Jul-02 18:26 045 2 gusting 5 26.7
2015-Jul-02 18:16 180 2 gusting 3 27.2
2015-Jul-02 18:06 157 1 gusting 3 27.8
2015-Jul-02 17:56 270 2 gusting 5 28.3
2015-Jul-02 17:46 270 4 gusting 6 28.3
2015-Jul-02 17:36 180 2 gusting 4 28.9
2015-Jul-02 17:26 135 2 gusting 5 28.9
2015-Jul-02 17:16 045 3 gusting 7 29.4
2015-Jul-02 17:06 315 5 gusting 12 29.4
2015-Jul-02 16:56 180 2 gusting 5 29.4
2015-Jul-02 16:46 225 3 gusting 10 29.4
2015-Jul-02 16:36 225 1 gusting 3 29.4
2015-Jul-02 16:26 225 2 gusting 6 29.4
2015-Jul-02 16:16 090 2 gusting 4 30.6
2015-Jul-02 16:06 112 2 gusting 5 31.7
2015-Jul-02 15:56 090 4 gusting 6 31.7
2015-Jul-02 15:46 315 2 gusting 3 31.1
2015-Jul-02 15:36 225 1 gusting 5 31.1
2015-Jul-02 15:26 180 5 gusting 9 30.6
2015-Jul-02 15:16 090 5 gusting 6 30.0
2015-Jul-02 15:06 315 4 gusting 8 29.4
2015-Jul-02 14:56 112 5 gusting 9 30.0
2015-Jul-02 14:46 225 1 gusting 2 30.0
2015-Jul-02 14:36 180 2 gusting 6 29.4
2015-Jul-02 14:26 337 4 gusting 7 30.0
2015-Jul-02 14:16 045 0 gusting 2 29.4
2015-Jul-02 14:06 315 4 gusting 6 30.0
2015-Jul-02 13:56 225 2 gusting 7 30.6
2015-Jul-02 13:46 315 4 gusting 6 31.1
2015-Jul-02 13:36 225 5 gusting 7 31.7
2015-Jul-02 13:26 31.1
2015-Jul-02 13:16 315 1 gusting 2 30.6
2015-Jul-02 13:06 045 6 gusting 7 30.6
2015-Jul-02 12:56 045 2 gusting 4 31.7
2015-Jul-02 12:46 045 2 gusting 5 31.7
2015-Jul-02 12:36 315 1 gusting 4 31.1
2015-Jul-02 12:26 135 3 gusting 6 31.1
2015-Jul-02 12:16 315 7 gusting 10 31.1
2015-Jul-02 12:06 180 6 gusting 7 30.6
2015-Jul-02 11:56 045 5 gusting 9 30.0
2015-Jul-02 11:46 045 2 gusting 4 29.4
2015-Jul-02 11:36 315 1 gusting 3 27.8
2015-Jul-02 11:26 022 5 gusting 8 27.8
2015-Jul-02 11:11 315 2 gusting 5 27.8
2015-Jul-02 10:56 315 5 gusting 10 28.3
2015-Jul-02 10:46 045 6 gusting 11 28.3
2015-Jul-02 10:36 315 5 gusting 11 28.3
2015-Jul-02 10:26 180 4 gusting 13 28.3
2015-Jul-02 10:16 045 5 gusting 7 28.3
2015-Jul-02 10:06 157 5 gusting 6 28.9
2015-Jul-02 09:56 337 3 gusting 8 28.9
2015-Jul-02 09:46 090 5 gusting 10 28.9
2015-Jul-02 09:31 045 6 gusting 10 28.3
2015-Jul-02 09:21 045 4 gusting 7 27.8
2015-Jul-02 09:11 27.8
2015-Jul-02 09:01 090 3 gusting 6 27.8
2015-Jul-02 08:51 27.8
2015-Jul-02 08:41 045 6 gusting 13 27.8
2015-Jul-02 08:31 27.8
2015-Jul-02 08:17 292 4 gusting 6 27.2
2015-Jul-02 08:06 315 2 gusting 3 27.2
2015-Jul-02 07:56 045 2 gusting 6 26.7
2015-Jul-02 07:46 045 4 gusting 6 26.7
2015-Jul-02 07:36 337 5 gusting 8 26.7
2015-Jul-02 07:26 26.1
2015-Jul-02 07:16 045 6 gusting 13 26.1
2015-Jul-02 07:06 045 3 gusting 5 25.6
2015-Jul-02 06:56 25.6
2015-Jul-02 06:46 045 9 gusting 16 25.0
2015-Jul-02 06:31 045 4 gusting 6 24.4
2015-Jul-02 06:21 045 5 gusting 9 24.4
2015-Jul-02 06:11 022 6 gusting 6 24.4
2015-Jul-02 06:01 045 5 gusting 7 23.9
2015-Jul-02 05:51 045 5 gusting 7 23.9
2015-Jul-02 05:41 23.9
2015-Jul-02 05:31 337 6 gusting 7 23.9
2015-Jul-02 05:21 022 0 gusting 1 23.9
2015-Jul-02 05:11 045 0 gusting 1 23.9
2015-Jul-02 04:56 045 2 gusting 4 23.9
2015-Jul-02 04:46 23.9
2015-Jul-02 04:36 23.9
2015-Jul-02 04:26 23.9
2015-Jul-02 04:16 23.9
2015-Jul-02 04:06 045 5 gusting 6 23.9
2015-Jul-02 03:56 23.9
2015-Jul-02 03:46 23.9
2015-Jul-02 03:31 045 2 gusting 4 23.9
2015-Jul-02 03:21 23.9
2015-Jul-02 03:11 045 3 gusting 6 23.9
2015-Jul-02 03:01 23.9
2015-Jul-02 02:51 23.9
2015-Jul-02 02:41 23.9
2015-Jul-02 02:31 090 5 gusting 7 23.9
2015-Jul-02 02:16 23.9
2015-Jul-02 02:06 315 0 gusting 2 23.9
2015-Jul-02 01:56 180 23.9
2015-Jul-02 01:46 23.9
2015-Jul-02 01:36 24.4
2015-Jul-02 01:26 23.9
2015-Jul-02 01:16 337 23.9
2015-Jul-02 01:06 23.9
2015-Jul-02 00:51 23.9
2015-Jul-02 00:41 270 1 gusting 2 23.9
2015-Jul-02 00:31 180 23.3
2015-Jul-02 00:21 23.3
2015-Jul-02 00:11 23.3
2015-Jul-02 00:01 23.3
2015-Jul-01 23:47 23.3
2015-Jul-01 23:36 23.9
2015-Jul-01 23:26 23.9
2015-Jul-01 23:16 23.9
2015-Jul-01 23:06 23.9
2015-Jul-01 22:56 23.9
2015-Jul-01 22:46 24.4
2015-Jul-01 22:36 24.4
2015-Jul-01 22:22 24.4
2015-Jul-01 22:07 24.4
2015-Jul-01 21:56 24.4
2015-Jul-01 21:46 24.4
2015-Jul-01 21:36 090 24.4
2015-Jul-01 21:26 25.0
2015-Jul-01 21:16 225 0 gusting 2 25.0
2015-Jul-01 21:06 225 0 gusting 1 25.0
2015-Jul-01 20:51 25.0
2015-Jul-01 20:41 180 0 gusting 1 25.6
2015-Jul-01 20:31 225 25.6
2015-Jul-01 20:21 25.6
2015-Jul-01 20:11 225 26.1
2015-Jul-01 20:01 225 26.1
2015-Jul-01 19:51 26.7
2015-Jul-01 19:36 225 0 gusting 2 26.7
2015-Jul-01 19:26 26.7
2015-Jul-01 19:16 225 26.7
2015-Jul-01 19:06 270 27.2
2015-Jul-01 18:56 225 0 gusting 2 27.8
2015-Jul-01 18:46 225 0 gusting 1 28.3
2015-Jul-01 18:36 180 0 gusting 1 28.9
2015-Jul-01 18:25 180 28.9
2015-Jul-01 18:11 090 29.4
2015-Jul-01 18:01 090 1 gusting 2 30.0
2015-Jul-01 17:51 090 1 gusting 3 30.0
2015-Jul-01 17:41 045 0 gusting 2 30.0
2015-Jul-01 17:31 045 0 gusting 2 30.6
2015-Jul-01 17:21 045 31.1
2015-Jul-01 17:11 045 31.1